Terminal Aerodrome Forecast
Issued by NWS Amarillo, TX

Home | Current Version | Previous Version | Text Only | Print | Product List | Glossary On
Versions: 1 2 3 4 5 6 7 8 9 10 11 12 13 14 15
000
FTUS44 KAMA 291100
TAFGUY
TAF
KGUY 291128Z 2912/3012 32011KT P6SM SKC
     FM291330 01025G35KT P6SM SCT250
     FM292300 03011KT P6SM SCT250
     FM300500 12008KT P6SM SCT120=

USA.gov is the U.S. government's official web portal to all federal, state and local government web resources and services.